sensor_id;sensor_type;location;lat;lon;timestamp;pressure;altitude;pressure_sealevel;temperature;humidity
39449;BME280;25151;45.566;9.382;2023-03-13T00:04:28;99899.75;;;20.20;56.31
39449;BME280;25151;45.566;9.382;2023-03-13T00:07:29;99897.06;;;20.16;56.32
39449;BME280;25151;45.566;9.382;2023-03-13T00:10:30;99891.44;;;20.16;56.51
39449;BME280;25151;45.566;9.382;2023-03-13T00:13:31;99866.69;;;20.14;56.36
39449;BME280;25151;45.566;9.382;2023-03-13T00:16:32;99873.06;;;20.15;56.53
39449;BME280;25151;45.566;9.382;2023-03-13T00:19:37;99881.91;;;20.13;56.42
39449;BME280;25151;45.566;9.382;2023-03-13T00:22:38;99887.06;;;20.15;56.33
39449;BME280;25151;45.566;9.382;2023-03-13T00:25:39;99875.53;;;20.13;56.26
39449;BME280;25151;45.566;9.382;2023-03-13T00:28:41;99873.19;;;20.11;56.37
39449;BME280;25151;45.566;9.382;2023-03-13T00:31:42;99860.41;;;20.10;56.33
39449;BME280;25151;45.566;9.382;2023-03-13T00:34:43;99857.19;;;20.12;56.36
39449;BME280;25151;45.566;9.382;2023-03-13T00:37:44;99867.59;;;20.11;56.30
39449;BME280;25151;45.566;9.382;2023-03-13T00:40:45;99877.19;;;20.10;56.50
39449;BME280;25151;45.566;9.382;2023-03-13T00:43:47;99897.56;;;20.11;56.42
39449;BME280;25151;45.566;9.382;2023-03-13T00:46:48;99903.63;;;20.09;56.40
39449;BME280;25151;45.566;9.382;2023-03-13T00:49:49;99906.06;;;20.07;56.42
39449;BME280;25151;45.566;9.382;2023-03-13T00:52:50;99906.06;;;20.07;56.33
39449;BME280;25151;45.566;9.382;2023-03-13T00:56:05;99914.03;;;20.09;56.33
39449;BME280;25151;45.566;9.382;2023-03-13T00:59:07;99922.53;;;20.05;56.48
39449;BME280;25151;45.566;9.382;2023-03-13T01:02:08;99933.28;;;20.07;56.23
39449;BME280;25151;45.566;9.382;2023-03-13T01:05:09;99932.50;;;20.06;56.25
39449;BME280;25151;45.566;9.382;2023-03-13T01:08:10;99920.53;;;20.06;56.09
39449;BME280;25151;45.566;9.382;2023-03-13T01:11:26;99912.59;;;20.04;56.27
39449;BME280;25151;45.566;9.382;2023-03-13T01:14:27;99906.22;;;20.04;56.29
39449;BME280;25151;45.566;9.382;2023-03-13T01:17:28;99911.00;;;20.03;56.40
39449;BME280;25151;45.566;9.382;2023-03-13T01:20:29;99927.78;;;20.03;56.15
39449;BME280;25151;45.566;9.382;2023-03-13T01:23:32;99925.78;;;20.04;56.39
39449;BME280;25151;45.566;9.382;2023-03-13T01:26:33;99925.44;;;20.02;56.23
39449;BME280;25151;45.566;9.382;2023-03-13T01:29:34;99913.47;;;20.01;56.38
39449;BME280;25151;45.566;9.382;2023-03-13T01:32:35;99915.13;;;19.99;56.44
39449;BME280;25151;45.566;9.382;2023-03-13T01:35:36;99909.53;;;19.99;56.41
39449;BME280;25151;45.566;9.382;2023-03-13T01:38:38;99911.91;;;20.00;56.28
39449;BME280;25151;45.566;9.382;2023-03-13T01:41:39;99919.06;;;20.01;56.29
39449;BME280;25151;45.566;9.382;2023-03-13T01:44:54;99917.91;;;19.99;56.28
39449;BME280;25151;45.566;9.382;2023-03-13T01:47:55;99925.53;;;19.98;56.23
39449;BME280;25151;45.566;9.382;2023-03-13T01:50:59;99928.34;;;19.98;56.10
39449;BME280;25151;45.566;9.382;2023-03-13T01:54:09;99934.28;;;20.00;56.27
39449;BME280;25151;45.566;9.382;2023-03-13T02:00:20;99915.56;;;19.97;56.38
39449;BME280;25151;45.566;9.382;2023-03-13T02:03:22;99915.69;;;19.94;56.49
39449;BME280;25151;45.566;9.382;2023-03-13T02:06:27;99919.25;;;19.94;56.27
39449;BME280;25151;45.566;9.382;2023-03-13T02:09:31;99916.13;;;19.92;56.34
39449;BME280;25151;45.566;9.382;2023-03-13T02:12:36;99923.28;;;19.93;56.37
39449;BME280;25151;45.566;9.382;2023-03-13T02:15:39;99921.72;;;19.92;56.52
39449;BME280;25151;45.566;9.382;2023-03-13T02:18:41;99917.69;;;19.93;56.23
39449;BME280;25151;45.566;9.382;2023-03-13T02:21:50;99921.72;;;19.92;56.24
39449;BME280;25151;45.566;9.382;2023-03-13T02:28:29;99925.72;;;19.91;56.18
39449;BME280;25151;45.566;9.382;2023-03-13T02:31:34;99930.53;;;19.90;56.31
39449;BME280;25151;45.566;9.382;2023-03-13T02:34:37;99928.19;;;19.89;56.28
39449;BME280;25151;45.566;9.382;2023-03-13T02:37:43;99933.44;;;19.87;56.32
39449;BME280;25151;45.566;9.382;2023-03-13T02:40:47;99936.94;;;19.91;56.63
39449;BME280;25151;45.566;9.382;2023-03-13T02:43:49;99930.13;;;19.92;56.47
39449;BME280;25151;45.566;9.382;2023-03-13T02:46:51;99932.56;;;19.90;56.25
39449;BME280;25151;45.566;9.382;2023-03-13T02:49:52;99925.03;;;19.87;56.54
39449;BME280;25151;45.566;9.382;2023-03-13T02:52:56;99913.06;;;19.86;56.49
39449;BME280;25151;45.566;9.382;2023-03-13T02:55:58;99908.25;;;19.87;56.46
39449;BME280;25151;45.566;9.382;2023-03-13T02:58:59;99897.16;;;19.83;56.52
39449;BME280;25151;45.566;9.382;2023-03-13T03:01:59;99888.44;;;19.81;56.48
39449;BME280;25151;45.566;9.382;2023-03-13T03:05:01;99895.50;;;19.86;56.33
39449;BME280;25151;45.566;9.382;2023-03-13T03:08:02;99900.75;;;19.84;56.29
39449;BME280;25151;45.566;9.382;2023-03-13T03:11:04;99902.75;;;19.83;56.32
39449;BME280;25151;45.566;9.382;2023-03-13T03:14:05;99911.97;;;19.84;56.24
39449;BME280;25151;45.566;9.382;2023-03-13T03:17:06;99906.38;;;19.84;56.32
39449;BME280;25151;45.566;9.382;2023-03-13T03:20:07;99919.53;;;19.83;56.28
39449;BME280;25151;45.566;9.382;2023-03-13T03:23:11;99923.16;;;19.84;56.33
39449;BME280;25151;45.566;9.382;2023-03-13T03:26:12;99938.72;;;19.85;56.40
39449;BME280;25151;45.566;9.382;2023-03-13T03:29:13;99935.56;;;19.83;56.41
39449;BME280;25151;45.566;9.382;2023-03-13T03:32:14;99937.16;;;19.84;56.46
39449;BME280;25151;45.566;9.382;2023-03-13T03:35:14;99928.38;;;19.82;56.42
39449;BME280;25151;45.566;9.382;2023-03-13T03:38:15;99933.53;;;19.83;56.29
39449;BME280;25151;45.566;9.382;2023-03-13T03:41:17;99934.44;;;19.80;56.48
39449;BME280;25151;45.566;9.382;2023-03-13T03:44:18;99940.38;;;19.82;56.43
39449;BME280;25151;45.566;9.382;2023-03-13T03:47:19;99930.50;;;19.78;56.37
39449;BME280;25151;45.566;9.382;2023-03-13T03:50:20;99938.03;;;19.81;56.30
39449;BME280;25151;45.566;9.382;2023-03-13T03:53:21;99935.66;;;19.79;56.31
39449;BME280;25151;45.566;9.382;2023-03-13T03:56:22;99942.06;;;19.80;56.14
39449;BME280;25151;45.566;9.382;2023-03-13T03:59:23;99936.09;;;19.78;56.47
39449;BME280;25151;45.566;9.382;2023-03-13T04:02:24;99943.72;;;19.77;56.63
39449;BME280;25151;45.566;9.382;2023-03-13T04:05:24;99949.31;;;19.77;56.34
39449;BME280;25151;45.566;9.382;2023-03-13T04:08:25;99956.56;;;19.75;56.38
39449;BME280;25151;45.566;9.382;2023-03-13T04:11:26;99955.31;;;19.76;56.49
39449;BME280;25151;45.566;9.382;2023-03-13T04:14:27;99961.28;;;19.78;56.43
39449;BME280;25151;45.566;9.382;2023-03-13T04:17:28;99947.28;;;19.78;56.56
39449;BME280;25151;45.566;9.382;2023-03-13T04:20:29;99955.78;;;19.74;56.45
39449;BME280;25151;45.566;9.382;2023-03-13T04:23:30;99963.72;;;19.76;56.26
39449;BME280;25151;45.566;9.382;2023-03-13T04:26:31;99964.06;;;19.78;56.50
39449;BME280;25151;45.566;9.382;2023-03-13T04:29:32;99958.13;;;19.76;56.53
39449;BME280;25151;45.566;9.382;2023-03-13T04:32:33;99946.94;;;19.76;56.36
39449;BME280;25151;45.566;9.382;2023-03-13T04:35:33;99939.78;;;19.75;56.51
39449;BME280;25151;45.566;9.382;2023-03-13T04:38:34;99946.16;;;19.75;56.46
39449;BME280;25151;45.566;9.382;2023-03-13T04:41:35;99941.34;;;19.76;56.31
39449;BME280;25151;45.566;9.382;2023-03-13T04:44:35;99942.22;;;19.73;56.39
39449;BME280;25151;45.566;9.382;2023-03-13T04:47:37;99938.53;;;19.76;56.38
39449;BME280;25151;45.566;9.382;2023-03-13T04:50:38;99937.41;;;19.73;56.55
39449;BME280;25151;45.566;9.382;2023-03-13T04:53:38;99922.66;;;19.73;56.65
39449;BME280;25151;45.566;9.382;2023-03-13T04:56:39;99918.25;;;19.72;56.30
39449;BME280;25151;45.566;9.382;2023-03-13T04:59:40;99917.84;;;19.73;56.46
39449;BME280;25151;45.566;9.382;2023-03-13T05:02:41;99929.44;;;19.72;56.32
39449;BME280;25151;45.566;9.382;2023-03-13T05:05:42;99933.47;;;19.71;56.37
39449;BME280;25151;45.566;9.382;2023-03-13T05:08:43;99933.47;;;19.71;56.34
39449;BME280;25151;45.566;9.382;2023-03-13T05:11:44;99927.88;;;19.71;56.41
39449;BME280;25151;45.566;9.382;2023-03-13T05:14:45;99935.94;;;19.69;56.41
39449;BME280;25151;45.566;9.382;2023-03-13T05:17:47;99958.66;;;19.71;56.51
39449;BME280;25151;45.566;9.382;2023-03-13T05:20:48;99966.28;;;19.70;56.36
39449;BME280;25151;45.566;9.382;2023-03-13T05:23:49;99964.63;;;19.73;56.45
39449;BME280;25151;45.566;9.382;2023-03-13T05:26:50;99966.38;;;19.67;56.64
39449;BME280;25151;45.566;9.382;2023-03-13T05:29:52;99965.59;;;19.66;56.18
39449;BME280;25151;45.566;9.382;2023-03-13T05:32:53;99966.28;;;19.70;56.32
39449;BME280;25151;45.566;9.382;2023-03-13T05:35:54;99962.00;;;19.65;56.39
39449;BME280;25151;45.566;9.382;2023-03-13T05:38:55;99959.91;;;19.70;56.33
39449;BME280;25151;45.566;9.382;2023-03-13T05:41:56;99968.75;;;19.68;56.48
39449;BME280;25151;45.566;9.382;2023-03-13T05:44:57;99964.03;;;19.65;56.45
39449;BME280;25151;45.566;9.382;2023-03-13T05:47:58;99953.59;;;19.65;56.42
39449;BME280;25151;45.566;9.382;2023-03-13T05:50:59;99954.84;;;19.64;56.53
39449;BME280;25151;45.566;9.382;2023-03-13T05:54:00;99964.81;;;19.65;56.57
39449;BME280;25151;45.566;9.382;2023-03-13T05:57:01;99968.38;;;19.66;56.55
39449;BME280;25151;45.566;9.382;2023-03-13T06:00:03;99963.56;;;19.67;56.42
39449;BME280;25151;45.566;9.382;2023-03-13T06:03:03;99952.03;;;19.64;56.37
39449;BME280;25151;45.566;9.382;2023-03-13T06:06:05;99953.59;;;19.65;56.42
39449;BME280;25151;45.566;9.382;2023-03-13T06:09:07;99953.59;;;19.65;56.26
39449;BME280;25151;45.566;9.382;2023-03-13T06:12:12;99946.44;;;19.64;56.43
39449;BME280;25151;45.566;9.382;2023-03-13T06:15:13;99959.97;;;19.66;56.33
39449;BME280;25151;45.566;9.382;2023-03-13T06:18:14;99953.25;;;19.63;56.45
39449;BME280;25151;45.566;9.382;2023-03-13T06:21:15;99949.94;;;19.69;56.28
39449;BME280;25151;45.566;9.382;2023-03-13T06:24:16;99953.53;;;19.69;56.39
39449;BME280;25151;45.566;9.382;2023-03-13T06:27:17;99948.72;;;19.70;56.29
39449;BME280;25151;45.566;9.382;2023-03-13T06:30:17;99952.38;;;19.67;56.42
39449;BME280;25151;45.566;9.382;2023-03-13T06:33:18;99949.03;;;19.72;56.45
39449;BME280;25151;45.566;9.382;2023-03-13T06:36:26;99950.63;;;19.73;56.76
39449;BME280;25151;45.566;9.382;2023-03-13T06:39:27;99947.84;;;19.73;56.24
39449;BME280;25151;45.566;9.382;2023-03-13T06:42:28;99953.44;;;19.73;56.33
39449;BME280;25151;45.566;9.382;2023-03-13T06:45:29;99950.97;;;19.75;56.50
39449;BME280;25151;45.566;9.382;2023-03-13T06:48:30;99958.13;;;19.76;56.43
39449;BME280;25151;45.566;9.382;2023-03-13T06:51:31;99960.91;;;19.76;56.59
39449;BME280;25151;45.566;9.382;2023-03-13T06:54:32;99963.72;;;19.76;56.41
39449;BME280;25151;45.566;9.382;2023-03-13T06:57:33;99953.44;;;19.73;56.65
39449;BME280;25151;45.566;9.382;2023-03-13T07:00:34;99946.94;;;19.76;56.69
39449;BME280;25151;45.566;9.382;2023-03-13T07:03:35;99950.97;;;19.75;56.53
39449;BME280;25151;45.566;9.382;2023-03-13T07:06:36;99954.13;;;19.77;56.48
39449;BME280;25151;45.566;9.382;2023-03-13T07:09:36;99946.50;;;19.77;56.46
39449;BME280;25151;45.566;9.382;2023-03-13T07:12:37;99952.09;;;19.77;56.50
39449;BME280;25151;45.566;9.382;2023-03-13T07:15:38;99964.84;;;19.78;56.45
39449;BME280;25151;45.566;9.382;2023-03-13T07:18:39;99973.25;;;19.78;56.57
39449;BME280;25151;45.566;9.382;2023-03-13T07:21:44;99978.06;;;19.78;56.81
39449;BME280;25151;45.566;9.382;2023-03-13T07:24:47;99988.03;;;19.79;56.45
39449;BME280;25151;45.566;9.382;2023-03-13T07:27:50;100003.59;;;19.80;56.48
39449;BME280;25151;45.566;9.382;2023-03-13T07:30:52;100002.78;;;19.79;56.23
39449;BME280;25151;45.566;9.382;2023-03-13T07:33:53;100012.00;;;19.80;56.36
39449;BME280;25151;45.566;9.382;2023-03-13T07:36:59;100005.97;;;19.81;56.56
39449;BME280;25151;45.566;9.382;2023-03-13T07:40:00;100009.53;;;19.82;56.55
39449;BME280;25151;45.566;9.382;2023-03-13T07:43:02;100026.69;;;19.84;56.55
39449;BME280;25151;45.566;9.382;2023-03-13T07:46:05;100027.09;;;19.82;56.65
39449;BME280;25151;45.566;9.382;2023-03-13T07:49:09;100037.06;;;19.83;56.60
39449;BME280;25151;45.566;9.382;2023-03-13T07:52:11;100032.28;;;19.84;56.61
39449;BME280;25151;45.566;9.382;2023-03-13T07:55:17;100035.78;;;19.88;56.66
39449;BME280;25151;45.566;9.382;2023-03-13T07:58:20;100030.97;;;19.88;56.58
39449;BME280;25151;45.566;9.382;2023-03-13T08:01:26;100022.13;;;19.90;56.29
39449;BME280;25151;45.566;9.382;2023-03-13T08:04:32;100023.34;;;19.89;56.68
39449;BME280;25151;45.566;9.382;2023-03-13T08:07:33;100018.53;;;19.89;56.50
39449;BME280;25151;45.566;9.382;2023-03-13T08:10:35;100006.09;;;19.90;56.64
39449;BME280;25151;45.566;9.382;2023-03-13T08:13:37;100001.28;;;19.91;56.68
39449;BME280;25151;45.566;9.382;2023-03-13T08:16:39;100011.28;;;19.92;56.48
39449;BME280;25151;45.566;9.382;2023-03-13T08:19:40;99998.50;;;19.91;56.33
39449;BME280;25151;45.566;9.382;2023-03-13T08:22:41;100013.25;;;19.92;56.54
39449;BME280;25151;45.566;9.382;2023-03-13T08:25:42;100015.66;;;19.93;56.41
39449;BME280;25151;45.566;9.382;2023-03-13T08:28:47;100009.25;;;19.93;56.58
39449;BME280;25151;45.566;9.382;2023-03-13T08:31:50;100003.22;;;19.94;56.51
39449;BME280;25151;45.566;9.382;2023-03-13T08:34:53;99994.50;;;19.92;56.42
39449;BME280;25151;45.566;9.382;2023-03-13T08:37:54;100001.19;;;19.95;56.37
39449;BME280;25151;45.566;9.382;2023-03-13T08:40:59;99992.81;;;19.95;56.23
39449;BME280;25151;45.566;9.382;2023-03-13T08:44:04;99993.59;;;19.95;56.44
39449;BME280;25151;45.566;9.382;2023-03-13T08:47:08;99988.00;;;19.95;56.30
39449;BME280;25151;45.566;9.382;2023-03-13T08:50:10;99982.84;;;19.94;56.43
39449;BME280;25151;45.566;9.382;2023-03-13T08:53:11;99989.22;;;19.94;56.22
39449;BME280;25151;45.566;9.382;2023-03-13T08:56:14;99993.59;;;19.95;56.28
39449;BME280;25151;45.566;9.382;2023-03-13T08:59:16;99990.00;;;19.95;56.54
39449;BME280;25151;45.566;9.382;2023-03-13T09:02:18;100007.56;;;19.95;56.28
39449;BME280;25151;45.566;9.382;2023-03-13T09:05:22;100013.53;;;19.97;56.27
39449;BME280;25151;45.566;9.382;2023-03-13T09:08:28;100023.59;;;19.95;56.28
39449;BME280;25151;45.566;9.382;2023-03-13T09:11:31;100022.81;;;19.94;56.42
39449;BME280;25151;45.566;9.382;2023-03-13T09:14:35;100014.41;;;19.94;56.24
39449;BME280;25151;45.566;9.382;2023-03-13T09:17:41;100006.56;;;19.89;56.26
39449;BME280;25151;45.566;9.382;2023-03-13T09:20:45;100004.78;;;19.95;56.35
39449;BME280;25151;45.566;9.382;2023-03-13T09:23:48;100007.16;;;19.97;56.03
39449;BME280;25151;45.566;9.382;2023-03-13T09:26:51;100004.78;;;19.95;56.10
39449;BME280;25151;45.566;9.382;2023-03-13T09:29:54;100001.66;;;19.93;55.81
39449;BME280;25151;45.566;9.382;2023-03-13T09:32:58;100018.88;;;19.92;56.13
39449;BME280;25151;45.566;9.382;2023-03-13T09:35:59;100024.38;;;19.95;55.93
39449;BME280;25151;45.566;9.382;2023-03-13T09:39:06;100025.59;;;19.94;56.08
39449;BME280;25151;45.566;9.382;2023-03-13T09:45:53;100001.66;;;19.93;56.06
39449;BME280;25151;45.566;9.382;2023-03-13T09:48:59;100000.09;;;19.92;56.28
39449;BME280;25151;45.566;9.382;2023-03-13T09:52:22;100007.56;;;19.95;56.04
39449;BME280;25151;45.566;9.382;2023-03-13T09:55:28;99995.38;;;19.89;55.96
39449;BME280;25151;45.566;9.382;2023-03-13T09:58:38;99999.19;;;19.95;56.04
39449;BME280;25151;45.566;9.382;2023-03-13T10:01:43;99989.59;;;19.96;55.96
39449;BME280;25151;45.566;9.382;2023-03-13T10:04:58;99993.94;;;19.97;55.99
39449;BME280;25151;45.566;9.382;2023-03-13T10:08:19;99989.50;;;20.00;55.93
39449;BME280;25151;45.566;9.382;2023-03-13T10:11:36;99987.81;;;20.02;55.89
39449;BME280;25151;45.566;9.382;2023-03-13T10:14:53;99985.00;;;20.02;55.77
39449;BME280;25151;45.566;9.382;2023-03-13T10:17:59;99982.97;;;20.03;56.12
39449;BME280;25151;45.566;9.382;2023-03-13T10:21:18;99980.97;;;20.03;55.98
39449;BME280;25151;45.566;9.382;2023-03-13T10:24:35;99974.16;;;20.04;55.98
39449;BME280;25151;45.566;9.382;2023-03-13T10:27:47;99983.66;;;20.07;56.08
39449;BME280;25151;45.566;9.382;2023-03-13T10:30:52;99968.56;;;20.04;56.38
39449;BME280;25151;45.566;9.382;2023-03-13T10:34:05;99979.66;;;20.08;55.98
39449;BME280;25151;45.566;9.382;2023-03-13T10:37:15;99970.03;;;20.09;56.32
39449;BME280;25151;45.566;9.382;2023-03-13T10:40:25;99966.44;;;20.08;56.25
39449;BME280;25151;45.566;9.382;2023-03-13T10:43:29;99964.84;;;20.07;56.14
39449;BME280;25151;45.566;9.382;2023-03-13T10:46:33;99959.25;;;20.07;56.24
39449;BME280;25151;45.566;9.382;2023-03-13T10:49:46;99958.06;;;20.08;56.18
39449;BME280;25151;45.566;9.382;2023-03-13T10:52:49;99938.00;;;20.10;56.16
39449;BME280;25151;45.566;9.382;2023-03-13T10:56:22;99926.81;;;20.10;56.16
39449;BME280;25151;45.566;9.382;2023-03-13T10:59:24;99931.63;;;20.09;56.33
39449;BME280;25151;45.566;9.382;2023-03-13T11:02:36;99941.50;;;20.14;56.29
39449;BME280;25151;45.566;9.382;2023-03-13T11:05:45;99957.19;;;20.11;56.23
39449;BME280;25151;45.566;9.382;2023-03-13T11:09:14;99937.59;;;20.11;56.46
39449;BME280;25151;45.566;9.382;2023-03-13T11:12:20;99938.09;;;20.06;56.21
39449;BME280;25151;45.566;9.382;2023-03-13T11:25:34;99931.16;;;20.11;56.68
39449;BME280;25151;45.566;9.382;2023-03-13T11:31:59;99914.81;;;20.09;56.76
39449;BME280;25151;45.566;9.382;2023-03-13T11:35:48;99915.19;;;20.11;56.83
39449;BME280;25151;45.566;9.382;2023-03-13T11:38:39;99905.56;;;20.12;57.01
39449;BME280;25151;45.566;9.382;2023-03-13T11:42:31;99915.50;;;20.13;57.18
39449;BME280;25151;45.566;9.382;2023-03-13T11:45:55;99911.47;;;20.14;56.90
39449;BME280;25151;45.566;9.382;2023-03-13T11:56:14;99873.06;;;20.15;56.99
39449;BME280;25151;45.566;9.382;2023-03-13T12:02:35;99862.53;;;20.19;56.83
39449;BME280;25151;45.566;9.382;2023-03-13T12:05:50;99850.13;;;20.20;57.04
39449;BME280;25151;45.566;9.382;2023-03-13T12:09:00;99846.56;;;20.20;56.98
39449;BME280;25151;45.566;9.382;2023-03-13T12:12:02;99844.06;;;20.22;57.12
39449;BME280;25151;45.566;9.382;2023-03-13T12:18:43;99844.97;;;20.19;57.12
39449;BME280;25151;45.566;9.382;2023-03-13T12:21:53;99832.88;;;20.22;57.33
39449;BME280;25151;45.566;9.382;2023-03-13T12:25:04;99834.44;;;20.23;57.15
39449;BME280;25151;45.566;9.382;2023-03-13T12:28:24;99839.63;;;20.24;57.08
39449;BME280;25151;45.566;9.382;2023-03-13T12:31:39;99835.69;;;20.22;57.42
39449;BME280;25151;45.566;9.382;2023-03-13T12:38:32;99800.41;;;20.24;57.09
39449;BME280;25151;45.566;9.382;2023-03-13T12:41:43;99809.25;;;20.23;57.27
39449;BME280;25151;45.566;9.382;2023-03-13T12:44:47;99808.34;;;20.26;57.20
39449;BME280;25151;45.566;9.382;2023-03-13T12:58:03;99773.09;;;20.28;57.13
39449;BME280;25151;45.566;9.382;2023-03-13T13:01:32;99771.06;;;20.29;57.24
39449;BME280;25151;45.566;9.382;2023-03-13T13:04:45;99762.31;;;20.27;57.10
39449;BME280;25151;45.566;9.382;2023-03-13T13:07:54;99762.31;;;20.27;57.25
39449;BME280;25151;45.566;9.382;2023-03-13T13:14:58;99752.25;;;20.29;57.01
39449;BME280;25151;45.566;9.382;2023-03-13T13:24:40;99741.72;;;20.33;57.01
39449;BME280;25151;45.566;9.382;2023-03-13T13:27:44;99738.13;;;20.33;57.02
39449;BME280;25151;45.566;9.382;2023-03-13T13:30:53;99729.38;;;20.31;57.08
39449;BME280;25151;45.566;9.382;2023-03-13T13:33:58;99730.97;;;20.32;56.84
39449;BME280;25151;45.566;9.382;2023-03-13T13:37:23;99730.97;;;20.32;56.75
39449;BME280;25151;45.566;9.382;2023-03-13T13:40:29;99719.78;;;20.32;56.86
39449;BME280;25151;45.566;9.382;2023-03-13T13:43:36;99716.19;;;20.31;57.01
39449;BME280;25151;45.566;9.382;2023-03-13T13:46:43;99710.91;;;20.33;57.10
39449;BME280;25151;45.566;9.382;2023-03-13T13:49:54;99693.78;;;20.31;56.89
39449;BME280;25151;45.566;9.382;2023-03-13T13:56:35;99688.50;;;20.33;57.22
39449;BME280;25151;45.566;9.382;2023-03-13T14:03:20;99682.91;;;20.33;56.89
39449;BME280;25151;45.566;9.382;2023-03-13T14:06:32;99673.84;;;20.29;57.12
39449;BME280;25151;45.566;9.382;2023-03-13T14:12:54;99675.75;;;20.32;56.89
39449;BME280;25151;45.566;9.382;2023-03-13T14:15:56;99668.25;;;20.29;57.04
39449;BME280;25151;45.566;9.382;2023-03-13T14:18:58;99654.34;;;20.26;56.93
39449;BME280;25151;45.566;9.382;2023-03-13T14:22:05;99655.91;;;20.27;56.81
39449;BME280;25151;45.566;9.382;2023-03-13T14:25:09;99659.19;;;20.25;57.00
39449;BME280;25151;45.566;9.382;2023-03-13T14:28:22;99665.56;;;20.26;56.94
39449;BME280;25151;45.566;9.382;2023-03-13T14:31:29;99667.13;;;20.27;56.87
39449;BME280;25151;45.566;9.382;2023-03-13T14:34:31;99659.63;;;20.24;56.92
39449;BME280;25151;45.566;9.382;2023-03-13T14:37:46;99659.63;;;20.24;56.98
39449;BME280;25151;45.566;9.382;2023-03-13T14:40:50;99653.69;;;20.22;56.88
39449;BME280;25151;45.566;9.382;2023-03-13T14:44:00;99652.56;;;20.19;56.94
39449;BME280;25151;45.566;9.382;2023-03-13T14:47:28;99655.03;;;20.17;56.95
39449;BME280;25151;45.566;9.382;2023-03-13T14:50:33;99653.81;;;20.18;56.95
39449;BME280;25151;45.566;9.382;2023-03-13T14:53:38;99643.50;;;20.15;56.74
39449;BME280;25151;45.566;9.382;2023-03-13T14:56:48;99632.78;;;20.13;56.71
39449;BME280;25151;45.566;9.382;2023-03-13T15:00:38;99633.13;;;20.16;56.73
39449;BME280;25151;45.566;9.382;2023-03-13T15:03:46;99641.50;;;20.16;56.75
39449;BME280;25151;45.566;9.382;2023-03-13T15:07:02;99637.47;;;20.17;56.83
39449;BME280;25151;45.566;9.382;2023-03-13T15:10:28;99632.78;;;20.13;56.99
39449;BME280;25151;45.566;9.382;2023-03-13T15:13:36;99637.91;;;20.15;56.79
39449;BME280;25151;45.566;9.382;2023-03-13T15:16:47;99637.13;;;20.14;56.70
39449;BME280;25151;45.566;9.382;2023-03-13T15:19:57;99636.03;;;20.12;56.69
39449;BME280;25151;45.566;9.382;2023-03-13T15:23:04;99632.44;;;20.11;56.90
39449;BME280;25151;45.566;9.382;2023-03-13T15:26:09;99626.84;;;20.11;56.64
39449;BME280;25151;45.566;9.382;2023-03-13T15:29:10;99610.06;;;20.11;56.71
39449;BME280;25151;45.566;9.382;2023-03-13T15:32:25;99606.13;;;20.09;56.74
39449;BME280;25151;45.566;9.382;2023-03-13T15:35:30;99611.72;;;20.09;56.70
39449;BME280;25151;45.566;9.382;2023-03-13T15:38:32;99596.97;;;20.08;56.89
39449;BME280;25151;45.566;9.382;2023-03-13T15:41:33;99594.59;;;20.07;56.39
39449;BME280;25151;45.566;9.382;2023-03-13T15:44:34;99598.16;;;20.07;56.79
39449;BME280;25151;45.566;9.382;2023-03-13T15:47:35;99594.94;;;20.09;56.73
39449;BME280;25151;45.566;9.382;2023-03-13T15:50:36;99600.53;;;20.09;56.67
39449;BME280;25151;45.566;9.382;2023-03-13T15:53:38;99594.16;;;20.08;56.94
39449;BME280;25151;45.566;9.382;2023-03-13T15:56:39;99586.66;;;20.05;56.80
39449;BME280;25151;45.566;9.382;2023-03-13T15:59:41;99579.03;;;20.06;56.86
39449;BME280;25151;45.566;9.382;2023-03-13T16:02:43;99575.47;;;20.05;56.92
39449;BME280;25151;45.566;9.382;2023-03-13T16:06:17;99571.09;;;20.04;56.66
39449;BME280;25151;45.566;9.382;2023-03-13T16:09:20;99564.25;;;20.05;56.88
39449;BME280;25151;45.566;9.382;2023-03-13T16:12:21;99567.97;;;20.02;56.91
39449;BME280;25151;45.566;9.382;2023-03-13T16:15:22;99552.72;;;20.03;56.80
39449;BME280;25151;45.566;9.382;2023-03-13T16:18:24;99553.97;;;20.02;56.39
39449;BME280;25151;45.566;9.382;2023-03-13T16:21:29;99558.31;;;20.03;56.68
39449;BME280;25151;45.566;9.382;2023-03-13T16:24:30;99559.91;;;20.04;56.92
39449;BME280;25151;45.566;9.382;2023-03-13T16:27:31;99549.59;;;20.01;56.92
39449;BME280;25151;45.566;9.382;2023-03-13T16:30:34;99556.75;;;20.02;56.90
39449;BME280;25151;45.566;9.382;2023-03-13T16:33:38;99550.06;;;20.00;57.12
39449;BME280;25151;45.566;9.382;2023-03-13T16:36:45;99553.66;;;20.00;57.04
39449;BME280;25151;45.566;9.382;2023-03-13T16:39:48;99560.91;;;19.98;56.77
39449;BME280;25151;45.566;9.382;2023-03-13T16:42:54;99561.69;;;19.98;57.07
39449;BME280;25151;45.566;9.382;2023-03-13T16:45:58;99559.25;;;20.00;56.68
39449;BME280;25151;45.566;9.382;2023-03-13T16:49:01;99554.09;;;19.99;56.88
39449;BME280;25151;45.566;9.382;2023-03-13T16:52:03;99542.56;;;19.97;56.78
39449;BME280;25151;45.566;9.382;2023-03-13T16:55:06;99546.03;;;20.01;56.69
39449;BME280;25151;45.566;9.382;2023-03-13T16:58:11;99538.06;;;19.99;56.86
39449;BME280;25151;45.566;9.382;2023-03-13T17:01:15;99535.41;;;19.96;56.80
39449;BME280;25151;45.566;9.382;2023-03-13T17:04:17;99532.16;;;19.97;56.63
39449;BME280;25151;45.566;9.382;2023-03-13T17:07:24;99520.19;;;19.97;57.03
39449;BME280;25151;45.566;9.382;2023-03-13T17:10:31;99522.63;;;19.95;56.85
39449;BME280;25151;45.566;9.382;2023-03-13T17:13:32;99522.63;;;19.95;56.68
39449;BME280;25151;45.566;9.382;2023-03-13T17:16:36;99532.16;;;19.97;57.20
39449;BME280;25151;45.566;9.382;2023-03-13T17:19:38;99527.34;;;19.98;56.99
39449;BME280;25151;45.566;9.382;2023-03-13T17:22:39;99535.28;;;19.99;56.96
39449;BME280;25151;45.566;9.382;2023-03-13T17:25:40;99534.06;;;20.00;56.93
39449;BME280;25151;45.566;9.382;2023-03-13T17:28:42;99532.81;;;20.01;56.85
39449;BME280;25151;45.566;9.382;2023-03-13T17:31:43;99525.66;;;20.00;56.82
39449;BME280;25151;45.566;9.382;2023-03-13T17:34:44;99527.22;;;20.01;56.93